sensor_id;sensor_type;location;lat;lon;timestamp;temperature;humidity
24207;DHT22;12351;52.284;9.160;2023-07-31T00:00:36;18.20;99.90
24207;DHT22;12351;52.284;9.160;2023-07-31T00:03:23;18.10;99.90
24207;DHT22;12351;52.284;9.160;2023-07-31T00:06:10;18.10;99.90
24207;DHT22;12351;52.284;9.160;2023-07-31T00:08:56;18.10;99.90
24207;DHT22;12351;52.284;9.160;2023-07-31T00:11:43;17.90;99.90
24207;DHT22;12351;52.284;9.160;2023-07-31T00:14:31;18.00;99.90
24207;DHT22;12351;52.284;9.160;2023-07-31T00:17:18;18.00;99.90
24207;DHT22;12351;52.284;9.160;2023-07-31T00:20:05;17.90;99.90
24207;DHT22;12351;52.284;9.160;2023-07-31T00:22:52;17.90;99.90
24207;DHT22;12351;52.284;9.160;2023-07-31T00:25:39;17.90;99.90
24207;DHT22;12351;52.284;9.160;2023-07-31T00:28:26;17.90;99.90
24207;DHT22;12351;52.284;9.160;2023-07-31T00:31:14;17.90;99.90
24207;DHT22;12351;52.284;9.160;2023-07-31T00:34:01;17.90;99.90
24207;DHT22;12351;52.284;9.160;2023-07-31T00:36:48;17.90;99.90
24207;DHT22;12351;52.284;9.160;2023-07-31T00:39:35;17.90;99.90
24207;DHT22;12351;52.284;9.160;2023-07-31T00:42:22;18.00;99.90
24207;DHT22;12351;52.284;9.160;2023-07-31T00:45:09;18.00;99.90
24207;DHT22;12351;52.284;9.160;2023-07-31T00:47:56;18.00;99.90
24207;DHT22;12351;52.284;9.160;2023-07-31T00:50:44;18.10;99.90
24207;DHT22;12351;52.284;9.160;2023-07-31T00:53:31;18.10;99.90
24207;DHT22;12351;52.284;9.160;2023-07-31T00:56:18;18.10;99.90
24207;DHT22;12351;52.284;9.160;2023-07-31T00:59:05;18.10;99.90
24207;DHT22;12351;52.284;9.160;2023-07-31T01:01:52;18.10;99.90
24207;DHT22;12351;52.284;9.160;2023-07-31T01:04:39;18.10;99.90
24207;DHT22;12351;52.284;9.160;2023-07-31T01:12:57;18.10;99.90
24207;DHT22;12351;52.284;9.160;2023-07-31T01:15:45;18.10;99.90
24207;DHT22;12351;52.284;9.160;2023-07-31T01:18:32;18.10;99.90
24207;DHT22;12351;52.284;9.160;2023-07-31T01:29:43;18.10;99.90
24207;DHT22;12351;52.284;9.160;2023-07-31T01:32:29;18.10;99.90
24207;DHT22;12351;52.284;9.160;2023-07-31T01:35:16;18.10;99.90
24207;DHT22;12351;52.284;9.160;2023-07-31T01:38:04;18.20;99.90
24207;DHT22;12351;52.284;9.160;2023-07-31T01:40:53;18.10;99.90
24207;DHT22;12351;52.284;9.160;2023-07-31T01:43:39;18.10;99.90
24207;DHT22;12351;52.284;9.160;2023-07-31T01:46:27;18.10;99.90
24207;DHT22;12351;52.284;9.160;2023-07-31T01:49:14;18.10;99.90
24207;DHT22;12351;52.284;9.160;2023-07-31T01:52:01;18.10;99.90
24207;DHT22;12351;52.284;9.160;2023-07-31T01:54:49;18.10;99.90
24207;DHT22;12351;52.284;9.160;2023-07-31T01:57:37;18.10;99.90
24207;DHT22;12351;52.284;9.160;2023-07-31T02:00:24;18.10;99.90
24207;DHT22;12351;52.284;9.160;2023-07-31T02:03:11;18.00;99.90
24207;DHT22;12351;52.284;9.160;2023-07-31T02:05:59;18.10;99.90
24207;DHT22;12351;52.284;9.160;2023-07-31T02:08:45;18.00;99.90
24207;DHT22;12351;52.284;9.160;2023-07-31T02:11:32;18.00;99.90
24207;DHT22;12351;52.284;9.160;2023-07-31T02:14:19;18.10;99.90
24207;DHT22;12351;52.284;9.160;2023-07-31T02:17:07;18.00;99.90
24207;DHT22;12351;52.284;9.160;2023-07-31T02:19:54;18.00;99.90
24207;DHT22;12351;52.284;9.160;2023-07-31T02:22:41;18.00;99.90
24207;DHT22;12351;52.284;9.160;2023-07-31T02:25:28;18.10;99.90
24207;DHT22;12351;52.284;9.160;2023-07-31T02:28:14;18.10;99.90
24207;DHT22;12351;52.284;9.160;2023-07-31T02:31:01;18.00;99.90
24207;DHT22;12351;52.284;9.160;2023-07-31T02:33:48;18.00;99.90
24207;DHT22;12351;52.284;9.160;2023-07-31T02:36:34;17.90;99.90
24207;DHT22;12351;52.284;9.160;2023-07-31T02:39:21;17.90;99.90
24207;DHT22;12351;52.284;9.160;2023-07-31T02:42:08;17.90;99.90
24207;DHT22;12351;52.284;9.160;2023-07-31T02:44:55;17.90;99.90
24207;DHT22;12351;52.284;9.160;2023-07-31T02:47:42;17.90;99.90
24207;DHT22;12351;52.284;9.160;2023-07-31T02:50:29;17.90;99.90
24207;DHT22;12351;52.284;9.160;2023-07-31T02:53:18;17.80;99.90
24207;DHT22;12351;52.284;9.160;2023-07-31T02:56:08;17.80;99.90
24207;DHT22;12351;52.284;9.160;2023-07-31T02:58:55;17.70;99.90
24207;DHT22;12351;52.284;9.160;2023-07-31T03:01:42;17.80;99.90
24207;DHT22;12351;52.284;9.160;2023-07-31T03:04:30;17.80;99.90
24207;DHT22;12351;52.284;9.160;2023-07-31T03:07:17;17.80;99.90
24207;DHT22;12351;52.284;9.160;2023-07-31T03:10:04;17.80;99.90
24207;DHT22;12351;52.284;9.160;2023-07-31T03:12:52;17.80;99.90
24207;DHT22;12351;52.284;9.160;2023-07-31T03:15:42;17.80;99.90
24207;DHT22;12351;52.284;9.160;2023-07-31T03:18:29;17.60;99.90
24207;DHT22;12351;52.284;9.160;2023-07-31T03:21:16;17.70;99.90
24207;DHT22;12351;52.284;9.160;2023-07-31T03:24:03;17.70;99.90
24207;DHT22;12351;52.284;9.160;2023-07-31T03:26:51;17.70;99.90
24207;DHT22;12351;52.284;9.160;2023-07-31T03:29:38;17.70;99.90
24207;DHT22;12351;52.284;9.160;2023-07-31T03:32:25;17.70;99.90
24207;DHT22;12351;52.284;9.160;2023-07-31T03:35:12;17.70;99.90
24207;DHT22;12351;52.284;9.160;2023-07-31T03:37:58;17.60;99.90
24207;DHT22;12351;52.284;9.160;2023-07-31T03:40:45;17.60;99.90
24207;DHT22;12351;52.284;9.160;2023-07-31T03:43:32;17.60;99.90
24207;DHT22;12351;52.284;9.160;2023-07-31T03:46:20;17.60;99.90
24207;DHT22;12351;52.284;9.160;2023-07-31T03:49:07;17.50;99.90
24207;DHT22;12351;52.284;9.160;2023-07-31T03:51:54;17.50;99.90
24207;DHT22;12351;52.284;9.160;2023-07-31T03:54:41;17.50;99.90
24207;DHT22;12351;52.284;9.160;2023-07-31T03:57:29;17.40;99.90
24207;DHT22;12351;52.284;9.160;2023-07-31T04:00:18;17.30;99.90
24207;DHT22;12351;52.284;9.160;2023-07-31T04:03:05;17.30;99.90
24207;DHT22;12351;52.284;9.160;2023-07-31T04:05:54;17.20;99.90
24207;DHT22;12351;52.284;9.160;2023-07-31T04:08:41;17.30;99.90
24207;DHT22;12351;52.284;9.160;2023-07-31T04:11:28;17.30;99.90
24207;DHT22;12351;52.284;9.160;2023-07-31T04:14:15;17.30;99.90
24207;DHT22;12351;52.284;9.160;2023-07-31T04:17:01;17.30;99.90
24207;DHT22;12351;52.284;9.160;2023-07-31T04:19:48;17.20;99.90
24207;DHT22;12351;52.284;9.160;2023-07-31T04:22:35;17.20;99.90
24207;DHT22;12351;52.284;9.160;2023-07-31T04:25:22;17.30;99.90
24207;DHT22;12351;52.284;9.160;2023-07-31T04:28:09;17.30;99.90
24207;DHT22;12351;52.284;9.160;2023-07-31T04:30:56;17.30;99.90
24207;DHT22;12351;52.284;9.160;2023-07-31T04:33:43;17.30;99.90
24207;DHT22;12351;52.284;9.160;2023-07-31T04:36:30;17.30;99.90
24207;DHT22;12351;52.284;9.160;2023-07-31T04:39:17;17.30;99.90
24207;DHT22;12351;52.284;9.160;2023-07-31T04:42:04;17.20;99.90
24207;DHT22;12351;52.284;9.160;2023-07-31T04:44:51;17.20;99.90
24207;DHT22;12351;52.284;9.160;2023-07-31T04:47:38;17.20;99.90
24207;DHT22;12351;52.284;9.160;2023-07-31T04:50:26;17.20;99.90
24207;DHT22;12351;52.284;9.160;2023-07-31T04:53:12;17.20;99.90
24207;DHT22;12351;52.284;9.160;2023-07-31T04:56:00;17.20;99.90
24207;DHT22;12351;52.284;9.160;2023-07-31T04:58:47;17.20;99.90
24207;DHT22;12351;52.284;9.160;2023-07-31T05:01:33;17.20;99.90
24207;DHT22;12351;52.284;9.160;2023-07-31T05:04:20;17.30;99.90
24207;DHT22;12351;52.284;9.160;2023-07-31T05:07:07;17.30;99.90
24207;DHT22;12351;52.284;9.160;2023-07-31T05:09:55;17.20;99.90
24207;DHT22;12351;52.284;9.160;2023-07-31T05:12:42;17.30;99.90
24207;DHT22;12351;52.284;9.160;2023-07-31T05:15:29;17.20;99.90
24207;DHT22;12351;52.284;9.160;2023-07-31T05:18:16;17.20;99.90
24207;DHT22;12351;52.284;9.160;2023-07-31T05:21:03;17.20;99.90
24207;DHT22;12351;52.284;9.160;2023-07-31T05:23:50;17.20;99.90
24207;DHT22;12351;52.284;9.160;2023-07-31T05:26:37;17.20;99.90
24207;DHT22;12351;52.284;9.160;2023-07-31T05:29:24;17.20;99.90
24207;DHT22;12351;52.284;9.160;2023-07-31T05:32:12;17.20;99.90
24207;DHT22;12351;52.284;9.160;2023-07-31T05:34:59;17.20;99.90
24207;DHT22;12351;52.284;9.160;2023-07-31T05:37:46;17.20;99.90
24207;DHT22;12351;52.284;9.160;2023-07-31T05:40:34;17.20;99.90
24207;DHT22;12351;52.284;9.160;2023-07-31T05:43:21;17.20;99.90
24207;DHT22;12351;52.284;9.160;2023-07-31T05:46:08;17.20;99.90
24207;DHT22;12351;52.284;9.160;2023-07-31T05:48:55;17.10;99.90
24207;DHT22;12351;52.284;9.160;2023-07-31T05:51:43;17.20;99.90
24207;DHT22;12351;52.284;9.160;2023-07-31T05:54:31;17.10;99.90
24207;DHT22;12351;52.284;9.160;2023-07-31T05:57:19;17.10;99.90
24207;DHT22;12351;52.284;9.160;2023-07-31T06:00:06;17.10;99.90
24207;DHT22;12351;52.284;9.160;2023-07-31T06:02:54;17.10;99.90
24207;DHT22;12351;52.284;9.160;2023-07-31T06:05:41;17.10;99.90
24207;DHT22;12351;52.284;9.160;2023-07-31T06:08:28;17.20;99.90
24207;DHT22;12351;52.284;9.160;2023-07-31T06:11:15;17.20;99.90
24207;DHT22;12351;52.284;9.160;2023-07-31T06:14:02;17.20;99.90
24207;DHT22;12351;52.284;9.160;2023-07-31T06:16:49;17.10;99.90
24207;DHT22;12351;52.284;9.160;2023-07-31T06:19:36;17.20;99.90
24207;DHT22;12351;52.284;9.160;2023-07-31T06:22:23;17.20;99.90
24207;DHT22;12351;52.284;9.160;2023-07-31T06:25:11;17.10;99.90
24207;DHT22;12351;52.284;9.160;2023-07-31T06:27:58;17.10;99.90
24207;DHT22;12351;52.284;9.160;2023-07-31T06:30:45;17.00;99.90
24207;DHT22;12351;52.284;9.160;2023-07-31T06:33:32;17.10;99.90
24207;DHT22;12351;52.284;9.160;2023-07-31T06:36:20;17.10;99.90
24207;DHT22;12351;52.284;9.160;2023-07-31T06:39:08;17.10;99.90
24207;DHT22;12351;52.284;9.160;2023-07-31T06:42:00;17.10;99.90
24207;DHT22;12351;52.284;9.160;2023-07-31T06:44:51;17.10;99.90
24207;DHT22;12351;52.284;9.160;2023-07-31T06:47:41;17.20;99.90
24207;DHT22;12351;52.284;9.160;2023-07-31T06:50:33;17.20;99.90
24207;DHT22;12351;52.284;9.160;2023-07-31T06:53:23;17.20;99.90
24207;DHT22;12351;52.284;9.160;2023-07-31T06:56:14;17.10;99.90
24207;DHT22;12351;52.284;9.160;2023-07-31T06:59:04;17.10;99.90
24207;DHT22;12351;52.284;9.160;2023-07-31T07:01:52;17.10;99.90
24207;DHT22;12351;52.284;9.160;2023-07-31T07:04:42;17.10;99.90
24207;DHT22;12351;52.284;9.160;2023-07-31T07:07:31;17.20;99.90
24207;DHT22;12351;52.284;9.160;2023-07-31T07:10:22;17.20;99.90
24207;DHT22;12351;52.284;9.160;2023-07-31T07:13:09;17.20;99.90
24207;DHT22;12351;52.284;9.160;2023-07-31T07:15:59;17.20;99.90
24207;DHT22;12351;52.284;9.160;2023-07-31T07:18:47;17.30;99.90
24207;DHT22;12351;52.284;9.160;2023-07-31T07:21:39;17.30;99.90
24207;DHT22;12351;52.284;9.160;2023-07-31T07:24:29;17.30;99.90
24207;DHT22;12351;52.284;9.160;2023-07-31T07:27:16;17.30;99.90
24207;DHT22;12351;52.284;9.160;2023-07-31T07:30:05;17.30;99.90
24207;DHT22;12351;52.284;9.160;2023-07-31T07:32:58;17.30;99.90
24207;DHT22;12351;52.284;9.160;2023-07-31T07:35:46;17.30;99.90
24207;DHT22;12351;52.284;9.160;2023-07-31T07:38:35;17.40;99.90
24207;DHT22;12351;52.284;9.160;2023-07-31T07:41:28;17.40;99.90
24207;DHT22;12351;52.284;9.160;2023-07-31T07:44:17;17.40;99.90
24207;DHT22;12351;52.284;9.160;2023-07-31T07:47:09;17.50;99.90
24207;DHT22;12351;52.284;9.160;2023-07-31T07:50:01;17.50;99.90
24207;DHT22;12351;52.284;9.160;2023-07-31T07:52:52;17.60;99.90
24207;DHT22;12351;52.284;9.160;2023-07-31T07:55:40;17.70;99.90
24207;DHT22;12351;52.284;9.160;2023-07-31T07:58:32;17.70;99.90
24207;DHT22;12351;52.284;9.160;2023-07-31T08:01:23;17.70;99.90
24207;DHT22;12351;52.284;9.160;2023-07-31T08:04:13;17.80;99.90
24207;DHT22;12351;52.284;9.160;2023-07-31T08:07:07;17.70;99.90
24207;DHT22;12351;52.284;9.160;2023-07-31T08:09:57;17.70;99.90
24207;DHT22;12351;52.284;9.160;2023-07-31T08:12:48;17.70;99.90
24207;DHT22;12351;52.284;9.160;2023-07-31T08:15:40;17.70;99.90
24207;DHT22;12351;52.284;9.160;2023-07-31T08:18:28;17.70;99.90
24207;DHT22;12351;52.284;9.160;2023-07-31T08:21:18;17.60;99.90
24207;DHT22;12351;52.284;9.160;2023-07-31T08:24:10;17.70;99.90
24207;DHT22;12351;52.284;9.160;2023-07-31T08:27:02;17.70;99.90
24207;DHT22;12351;52.284;9.160;2023-07-31T08:29:55;17.70;99.90
24207;DHT22;12351;52.284;9.160;2023-07-31T08:32:43;17.70;99.90
24207;DHT22;12351;52.284;9.160;2023-07-31T08:35:36;17.70;99.90
24207;DHT22;12351;52.284;9.160;2023-07-31T08:38:25;17.70;99.90
24207;DHT22;12351;52.284;9.160;2023-07-31T08:41:17;17.80;99.90
24207;DHT22;12351;52.284;9.160;2023-07-31T08:44:08;17.80;99.90
24207;DHT22;12351;52.284;9.160;2023-07-31T08:47:01;17.90;99.90
24207;DHT22;12351;52.284;9.160;2023-07-31T08:49:49;17.80;99.90
24207;DHT22;12351;52.284;9.160;2023-07-31T08:52:36;17.80;99.90
24207;DHT22;12351;52.284;9.160;2023-07-31T08:55:23;17.90;99.90
24207;DHT22;12351;52.284;9.160;2023-07-31T08:58:13;17.90;99.90
24207;DHT22;12351;52.284;9.160;2023-07-31T09:01:03;17.90;99.90
24207;DHT22;12351;52.284;9.160;2023-07-31T09:03:51;17.70;99.90
24207;DHT22;12351;52.284;9.160;2023-07-31T09:06:39;17.60;99.90
24207;DHT22;12351;52.284;9.160;2023-07-31T09:09:26;17.50;99.90
24207;DHT22;12351;52.284;9.160;2023-07-31T09:12:13;17.50;99.90
24207;DHT22;12351;52.284;9.160;2023-07-31T09:15:01;17.40;99.90
24207;DHT22;12351;52.284;9.160;2023-07-31T09:17:50;17.40;99.90
24207;DHT22;12351;52.284;9.160;2023-07-31T09:20:38;17.30;99.90
24207;DHT22;12351;52.284;9.160;2023-07-31T09:23:25;17.20;99.90
24207;DHT22;12351;52.284;9.160;2023-07-31T09:26:28;17.30;99.90
24207;DHT22;12351;52.284;9.160;2023-07-31T09:29:04;17.30;99.90
24207;DHT22;12351;52.284;9.160;2023-07-31T09:31:51;17.40;99.90
24207;DHT22;12351;52.284;9.160;2023-07-31T09:34:39;17.40;99.90
24207;DHT22;12351;52.284;9.160;2023-07-31T09:37:29;17.30;99.90
24207;DHT22;12351;52.284;9.160;2023-07-31T09:43:08;17.20;99.90
24207;DHT22;12351;52.284;9.160;2023-07-31T09:45:56;17.20;99.90
24207;DHT22;12351;52.284;9.160;2023-07-31T09:48:44;17.20;99.90
24207;DHT22;12351;52.284;9.160;2023-07-31T09:51:31;17.30;99.90
24207;DHT22;12351;52.284;9.160;2023-07-31T09:54:19;17.30;99.90
24207;DHT22;12351;52.284;9.160;2023-07-31T09:57:07;17.20;99.90
24207;DHT22;12351;52.284;9.160;2023-07-31T09:59:56;17.20;99.90
24207;DHT22;12351;52.284;9.160;2023-07-31T10:02:45;17.30;99.90
24207;DHT22;12351;52.284;9.160;2023-07-31T10:05:35;17.30;99.90
24207;DHT22;12351;52.284;9.160;2023-07-31T10:08:27;17.20;99.90
24207;DHT22;12351;52.284;9.160;2023-07-31T10:11:13;17.30;99.90
24207;DHT22;12351;52.284;9.160;2023-07-31T10:14:02;17.30;99.90
24207;DHT22;12351;52.284;9.160;2023-07-31T10:16:49;17.30;99.90
24207;DHT22;12351;52.284;9.160;2023-07-31T10:19:37;17.30;99.90
24207;DHT22;12351;52.284;9.160;2023-07-31T10:22:25;17.20;99.90
24207;DHT22;12351;52.284;9.160;2023-07-31T10:25:12;17.20;99.90
24207;DHT22;12351;52.284;9.160;2023-07-31T10:28:01;17.40;99.90
24207;DHT22;12351;52.284;9.160;2023-07-31T10:30:48;17.40;99.90
24207;DHT22;12351;52.284;9.160;2023-07-31T10:33:36;17.40;99.90
24207;DHT22;12351;52.284;9.160;2023-07-31T10:36:24;17.30;99.90
24207;DHT22;12351;52.284;9.160;2023-07-31T10:44:56;17.30;99.90
24207;DHT22;12351;52.284;9.160;2023-07-31T10:47:43;17.30;99.90
24207;DHT22;12351;52.284;9.160;2023-07-31T10:50:36;17.30;99.90
24207;DHT22;12351;52.284;9.160;2023-07-31T10:53:22;17.30;99.90
24207;DHT22;12351;52.284;9.160;2023-07-31T10:56:10;17.30;99.90
24207;DHT22;12351;52.284;9.160;2023-07-31T10:59:00;17.30;99.90
24207;DHT22;12351;52.284;9.160;2023-07-31T11:01:49;17.30;99.90
24207;DHT22;12351;52.284;9.160;2023-07-31T11:04:37;17.30;99.90
24207;DHT22;12351;52.284;9.160;2023-07-31T11:07:24;17.30;99.90
24207;DHT22;12351;52.284;9.160;2023-07-31T11:10:11;17.30;99.90
24207;DHT22;12351;52.284;9.160;2023-07-31T11:13:00;17.30;99.90
24207;DHT22;12351;52.284;9.160;2023-07-31T11:15:47;17.30;99.90
24207;DHT22;12351;52.284;9.160;2023-07-31T11:18:34;17.30;99.90
24207;DHT22;12351;52.284;9.160;2023-07-31T11:21:23;17.30;99.90
24207;DHT22;12351;52.284;9.160;2023-07-31T11:24:12;17.40;99.90
24207;DHT22;12351;52.284;9.160;2023-07-31T11:26:59;17.30;99.90
24207;DHT22;12351;52.284;9.160;2023-07-31T11:29:50;17.30;99.90
24207;DHT22;12351;52.284;9.160;2023-07-31T11:32:37;17.30;99.90
24207;DHT22;12351;52.284;9.160;2023-07-31T11:35:24;17.20;99.90
24207;DHT22;12351;52.284;9.160;2023-07-31T11:38:14;17.30;99.90
24207;DHT22;12351;52.284;9.160;2023-07-31T11:41:02;17.30;99.90
24207;DHT22;12351;52.284;9.160;2023-07-31T11:43:49;17.30;99.90
24207;DHT22;12351;52.284;9.160;2023-07-31T11:46:38;17.20;99.90
24207;DHT22;12351;52.284;9.160;2023-07-31T11:49:26;17.30;99.90
24207;DHT22;12351;52.284;9.160;2023-07-31T11:52:13;17.30;99.90
24207;DHT22;12351;52.284;9.160;2023-07-31T11:55:00;17.30;99.90
24207;DHT22;12351;52.284;9.160;2023-07-31T11:57:48;17.40;99.90
24207;DHT22;12351;52.284;9.160;2023-07-31T12:00:34;17.40;99.90
24207;DHT22;12351;52.284;9.160;2023-07-31T12:03:22;17.30;99.90
24207;DHT22;12351;52.284;9.160;2023-07-31T12:06:09;17.30;99.90
24207;DHT22;12351;52.284;9.160;2023-07-31T12:11:46;17.40;99.90
24207;DHT22;12351;52.284;9.160;2023-07-31T12:14:34;17.40;99.90
24207;DHT22;12351;52.284;9.160;2023-07-31T12:17:21;17.40;99.90
24207;DHT22;12351;52.284;9.160;2023-07-31T12:20:09;17.50;99.90
24207;DHT22;12351;52.284;9.160;2023-07-31T12:22:57;17.50;99.90
24207;DHT22;12351;52.284;9.160;2023-07-31T12:25:44;17.50;99.90
24207;DHT22;12351;52.284;9.160;2023-07-31T12:28:35;17.60;99.90
24207;DHT22;12351;52.284;9.160;2023-07-31T12:31:22;17.80;99.90
24207;DHT22;12351;52.284;9.160;2023-07-31T12:36:59;17.70;99.90
24207;DHT22;12351;52.284;9.160;2023-07-31T12:39:46;17.70;99.90
24207;DHT22;12351;52.284;9.160;2023-07-31T12:42:33;17.60;99.90
24207;DHT22;12351;52.284;9.160;2023-07-31T12:45:20;17.60;99.90
24207;DHT22;12351;52.284;9.160;2023-07-31T12:48:08;17.60;99.90
24207;DHT22;12351;52.284;9.160;2023-07-31T12:50:55;17.60;99.90
24207;DHT22;12351;52.284;9.160;2023-07-31T12:53:42;17.60;99.90
24207;DHT22;12351;52.284;9.160;2023-07-31T12:56:29;17.70;99.90
24207;DHT22;12351;52.284;9.160;2023-07-31T12:59:16;17.80;99.90
24207;DHT22;12351;52.284;9.160;2023-07-31T13:02:03;17.80;99.90
24207;DHT22;12351;52.284;9.160;2023-07-31T13:04:50;17.90;99.90
24207;DHT22;12351;52.284;9.160;2023-07-31T13:07:37;17.90;99.90
24207;DHT22;12351;52.284;9.160;2023-07-31T13:10:24;17.90;99.90
24207;DHT22;12351;52.284;9.160;2023-07-31T13:13:12;18.10;99.90
24207;DHT22;12351;52.284;9.160;2023-07-31T13:16:00;18.10;99.90
24207;DHT22;12351;52.284;9.160;2023-07-31T13:18:47;18.20;99.90
24207;DHT22;12351;52.284;9.160;2023-07-31T13:21:34;18.30;99.90
24207;DHT22;12351;52.284;9.160;2023-07-31T13:24:22;18.40;99.90
24207;DHT22;12351;52.284;9.160;2023-07-31T13:27:09;18.40;99.90
24207;DHT22;12351;52.284;9.160;2023-07-31T13:29:56;18.40;99.90
24207;DHT22;12351;52.284;9.160;2023-07-31T13:32:43;18.40;99.90
24207;DHT22;12351;52.284;9.160;2023-07-31T13:35:30;18.40;99.90
24207;DHT22;12351;52.284;9.160;2023-07-31T13:38:17;18.30;99.90
24207;DHT22;12351;52.284;9.160;2023-07-31T13:41:03;18.30;99.90
24207;DHT22;12351;52.284;9.160;2023-07-31T13:43:51;18.30;99.90
24207;DHT22;12351;52.284;9.160;2023-07-31T13:46:38;18.20;99.90
24207;DHT22;12351;52.284;9.160;2023-07-31T13:49:25;18.20;99.90
24207;DHT22;12351;52.284;9.160;2023-07-31T13:52:12;18.20;99.90
24207;DHT22;12351;52.284;9.160;2023-07-31T13:54:59;18.20;99.90
24207;DHT22;12351;52.284;9.160;2023-07-31T13:57:46;18.20;99.90
24207;DHT22;12351;52.284;9.160;2023-07-31T14:00:34;18.30;99.90
24207;DHT22;12351;52.284;9.160;2023-07-31T14:03:21;18.50;99.90
24207;DHT22;12351;52.284;9.160;2023-07-31T14:06:08;18.60;99.90
24207;DHT22;12351;52.284;9.160;2023-07-31T14:08:55;18.70;99.90
24207;DHT22;12351;52.284;9.160;2023-07-31T14:11:42;18.70;99.90
24207;DHT22;12351;52.284;9.160;2023-07-31T14:14:29;18.70;99.90
24207;DHT22;12351;52.284;9.160;2023-07-31T14:17:16;18.80;99.90
24207;DHT22;12351;52.284;9.160;2023-07-31T14:20:04;18.90;99.90
24207;DHT22;12351;52.284;9.160;2023-07-31T14:22:51;18.90;99.90
24207;DHT22;12351;52.284;9.160;2023-07-31T14:25:38;18.90;99.90
24207;DHT22;12351;52.284;9.160;2023-07-31T14:28:24;19.00;99.90
24207;DHT22;12351;52.284;9.160;2023-07-31T14:31:11;19.00;99.90
24207;DHT22;12351;52.284;9.160;2023-07-31T14:33:58;19.10;99.90
24207;DHT22;12351;52.284;9.160;2023-07-31T14:36:45;19.20;99.90
24207;DHT22;12351;52.284;9.160;2023-07-31T14:39:32;19.40;99.90
24207;DHT22;12351;52.284;9.160;2023-07-31T14:42:19;19.50;99.90
24207;DHT22;12351;52.284;9.160;2023-07-31T14:45:07;19.50;99.90
24207;DHT22;12351;52.284;9.160;2023-07-31T14:47:54;19.60;99.90
24207;DHT22;12351;52.284;9.160;2023-07-31T14:50:41;19.60;99.90
24207;DHT22;12351;52.284;9.160;2023-07-31T14:53:28;19.70;99.90
24207;DHT22;12351;52.284;9.160;2023-07-31T14:56:14;19.70;99.90
24207;DHT22;12351;52.284;9.160;2023-07-31T14:59:01;19.80;99.90
24207;DHT22;12351;52.284;9.160;2023-07-31T15:01:48;19.80;99.90
24207;DHT22;12351;52.284;9.160;2023-07-31T15:04:36;19.70;99.90
24207;DHT22;12351;52.284;9.160;2023-07-31T15:07:23;19.70;99.90
24207;DHT22;12351;52.284;9.160;2023-07-31T15:10:10;19.80;99.90
24207;DHT22;12351;52.284;9.160;2023-07-31T15:12:56;19.80;99.90
24207;DHT22;12351;52.284;9.160;2023-07-31T15:15:44;19.70;99.90
24207;DHT22;12351;52.284;9.160;2023-07-31T15:18:31;19.60;99.90
24207;DHT22;12351;52.284;9.160;2023-07-31T15:21:18;19.50;99.90
24207;DHT22;12351;52.284;9.160;2023-07-31T15:24:05;19.60;99.90
24207;DHT22;12351;52.284;9.160;2023-07-31T15:26:51;19.60;99.90
24207;DHT22;12351;52.284;9.160;2023-07-31T15:29:38;19.60;99.90
24207;DHT22;12351;52.284;9.160;2023-07-31T15:32:25;19.70;99.90
24207;DHT22;12351;52.284;9.160;2023-07-31T15:35:12;19.60;99.90
24207;DHT22;12351;52.284;9.160;2023-07-31T15:37:58;19.80;99.90
24207;DHT22;12351;52.284;9.160;2023-07-31T15:40:45;19.80;99.90
24207;DHT22;12351;52.284;9.160;2023-07-31T15:43:32;19.70;99.90
24207;DHT22;12351;52.284;9.160;2023-07-31T15:46:21;19.80;99.90
24207;DHT22;12351;52.284;9.160;2023-07-31T15:49:07;19.90;99.90
24207;DHT22;12351;52.284;9.160;2023-07-31T15:51:54;20.00;99.90
24207;DHT22;12351;52.284;9.160;2023-07-31T15:54:41;19.90;99.90
24207;DHT22;12351;52.284;9.160;2023-07-31T15:57:28;20.00;99.90
24207;DHT22;12351;52.284;9.160;2023-07-31T16:00:15;20.00;99.90
24207;DHT22;12351;52.284;9.160;2023-07-31T16:03:02;20.00;99.90
24207;DHT22;12351;52.284;9.160;2023-07-31T16:05:49;20.00;99.90
24207;DHT22;12351;52.284;9.160;2023-07-31T16:08:36;20.00;99.90
24207;DHT22;12351;52.284;9.160;2023-07-31T16:11:25;20.00;99.90
24207;DHT22;12351;52.284;9.160;2023-07-31T16:14:13;20.00;99.90
24207;DHT22;12351;52.284;9.160;2023-07-31T16:16:59;20.00;99.90
24207;DHT22;12351;52.284;9.160;2023-07-31T16:19:46;20.00;99.90
24207;DHT22;12351;52.284;9.160;2023-07-31T16:22:33;20.00;99.90
24207;DHT22;12351;52.284;9.160;2023-07-31T16:25:20;20.00;99.90
24207;DHT22;12351;52.284;9.160;2023-07-31T16:28:07;19.90;99.90
24207;DHT22;12351;52.284;9.160;2023-07-31T16:30:54;19.90;99.90
24207;DHT22;12351;52.284;9.160;2023-07-31T16:33:41;19.80;99.90
24207;DHT22;12351;52.284;9.160;2023-07-31T16:36:28;19.90;99.90
24207;DHT22;12351;52.284;9.160;2023-07-31T16:39:14;20.00;99.90
24207;DHT22;12351;52.284;9.160;2023-07-31T16:42:02;20.10;99.90
24207;DHT22;12351;52.284;9.160;2023-07-31T16:44:49;20.10;99.90
24207;DHT22;12351;52.284;9.160;2023-07-31T16:47:36;20.00;99.90
24207;DHT22;12351;52.284;9.160;2023-07-31T16:50:23;20.10;99.90
24207;DHT22;12351;52.284;9.160;2023-07-31T16:53:10;20.00;99.90
24207;DHT22;12351;52.284;9.160;2023-07-31T16:55:57;20.00;99.90
24207;DHT22;12351;52.284;9.160;2023-07-31T16:58:45;20.00;99.90
24207;DHT22;12351;52.284;9.160;2023-07-31T17:01:33;19.90;99.90
24207;DHT22;12351;52.284;9.160;2023-07-31T17:04:19;19.90;99.90
24207;DHT22;12351;52.284;9.160;2023-07-31T17:07:06;19.90;99.90
24207;DHT22;12351;52.284;9.160;2023-07-31T17:09:52;19.90;99.90
24207;DHT22;12351;52.284;9.160;2023-07-31T17:12:40;19.80;99.90
24207;DHT22;12351;52.284;9.160;2023-07-31T17:15:27;19.80;99.90
24207;DHT22;12351;52.284;9.160;2023-07-31T17:18:14;19.80;99.90
24207;DHT22;12351;52.284;9.160;2023-07-31T17:23:51;19.80;99.90
24207;DHT22;12351;52.284;9.160;2023-07-31T17:26:38;19.70;99.90
24207;DHT22;12351;52.284;9.160;2023-07-31T17:29:27;19.70;99.90
24207;DHT22;12351;52.284;9.160;2023-07-31T17:32:15;19.70;99.90
24207;DHT22;12351;52.284;9.160;2023-07-31T17:35:02;19.70;99.90
24207;DHT22;12351;52.284;9.160;2023-07-31T17:37:49;19.60;99.90
24207;DHT22;12351;52.284;9.160;2023-07-31T17:40:38;19.60;99.90
24207;DHT22;12351;52.284;9.160;2023-07-31T17:43:24;19.70;99.90
24207;DHT22;12351;52.284;9.160;2023-07-31T17:46:11;19.70;99.90
24207;DHT22;12351;52.284;9.160;2023-07-31T17:48:59;19.70;99.90
24207;DHT22;12351;52.284;9.160;2023-07-31T17:51:46;19.70;99.90
24207;DHT22;12351;52.284;9.160;2023-07-31T17:54:33;19.60;99.90
24207;DHT22;12351;52.284;9.160;2023-07-31T17:57:20;19.60;99.90
24207;DHT22;12351;52.284;9.160;2023-07-31T18:00:07;19.60;99.90
24207;DHT22;12351;52.284;9.160;2023-07-31T18:02:54;19.70;99.90
24207;DHT22;12351;52.284;9.160;2023-07-31T18:05:41;19.60;99.90
24207;DHT22;12351;52.284;9.160;2023-07-31T18:08:28;19.60;99.90